sensor_id;sensor_type;location;lat;lon;timestamp;pressure;altitude;pressure_sealevel;temperature;humidity
44079;BME280;29744;49.078;12.878;2024-01-25T00:01:50;97182.41;;;14.39;33.76
44079;BME280;29744;49.078;12.878;2024-01-25T00:06:50;97183.81;;;14.36;33.45
44079;BME280;29744;49.078;12.878;2024-01-25T00:11:51;97201.88;;;14.36;33.32
44079;BME280;29744;49.078;12.878;2024-01-25T00:16:51;97199.50;;;14.34;33.57
44079;BME280;29744;49.078;12.878;2024-01-25T00:21:51;97197.91;;;14.33;33.70
44079;BME280;29744;49.078;12.878;2024-01-25T00:26:52;97199.81;;;14.33;33.54
44079;BME280;29744;49.078;12.878;2024-01-25T00:31:52;97205.81;;;14.30;33.96
44079;BME280;29744;49.078;12.878;2024-01-25T00:36:53;97185.63;;;14.27;33.67
44079;BME280;29744;49.078;12.878;2024-01-25T00:42:04;97187.53;;;14.27;33.81
44079;BME280;29744;49.078;12.878;2024-01-25T00:47:08;97203.72;;;14.27;33.98
44079;BME280;29744;49.078;12.878;2024-01-25T00:52:09;97204.00;;;14.25;33.85
44079;BME280;29744;49.078;12.878;2024-01-25T00:57:10;97198.91;;;14.24;33.76
44079;BME280;29744;49.078;12.878;2024-01-25T01:02:12;97200.03;;;14.23;33.80
44079;BME280;29744;49.078;12.878;2024-01-25T01:07:13;97204.88;;;14.21;33.47
44079;BME280;29744;49.078;12.878;2024-01-25T01:12:13;97204.88;;;14.21;33.94
44079;BME280;29744;49.078;12.878;2024-01-25T01:17:14;97191.72;;;14.19;33.65
44079;BME280;29744;49.078;12.878;2024-01-25T01:22:15;97187.41;;;14.18;33.55
44079;BME280;29744;49.078;12.878;2024-01-25T01:27:16;97185.81;;;14.17;33.71
44079;BME280;29744;49.078;12.878;2024-01-25T01:32:16;97182.63;;;14.15;33.72
44079;BME280;29744;49.078;12.878;2024-01-25T01:37:16;97181.81;;;14.14;33.75
44079;BME280;29744;49.078;12.878;2024-01-25T01:42:16;97187.53;;;14.13;33.86
44079;BME280;29744;49.078;12.878;2024-01-25T01:47:17;97181.31;;;14.12;33.73
44079;BME280;29744;49.078;12.878;2024-01-25T01:52:17;97181.63;;;14.11;33.48
44079;BME280;29744;49.078;12.878;2024-01-25T01:57:18;97180.03;;;14.10;33.84
44079;BME280;29744;49.078;12.878;2024-01-25T02:02:18;97170.34;;;14.09;33.75
44079;BME280;29744;49.078;12.878;2024-01-25T02:07:19;97170.66;;;14.07;33.59
44079;BME280;29744;49.078;12.878;2024-01-25T02:12:19;97167.94;;;14.07;33.56
44079;BME280;29744;49.078;12.878;2024-01-25T02:17:19;97168.25;;;14.06;33.66
44079;BME280;29744;49.078;12.878;2024-01-25T02:22:20;97178.25;;;14.05;33.94
44079;BME280;29744;49.078;12.878;2024-01-25T02:27:20;97175.06;;;14.03;34.12
44079;BME280;29744;49.078;12.878;2024-01-25T02:32:20;97165.38;;;14.02;33.65
44079;BME280;29744;49.078;12.878;2024-01-25T02:37:21;97165.38;;;14.02;34.05
44079;BME280;29744;49.078;12.878;2024-01-25T02:42:22;97161.06;;;14.01;33.72
44079;BME280;29744;49.078;12.878;2024-01-25T02:47:22;97162.16;;;14.00;33.68
44079;BME280;29744;49.078;12.878;2024-01-25T02:52:22;97163.28;;;13.99;33.56
44079;BME280;29744;49.078;12.878;2024-01-25T02:57:23;97153.59;;;13.98;33.65
44079;BME280;29744;49.078;12.878;2024-01-25T03:02:23;97155.78;;;13.96;33.81
44079;BME280;29744;49.078;12.878;2024-01-25T03:07:24;97166.56;;;13.96;33.81
44079;BME280;29744;49.078;12.878;2024-01-25T03:12:24;97166.06;;;13.94;34.14
44079;BME280;29744;49.078;12.878;2024-01-25T03:17:24;97155.28;;;13.94;34.15
44079;BME280;29744;49.078;12.878;2024-01-25T03:22:25;97156.38;;;13.93;33.87
44079;BME280;29744;49.078;12.878;2024-01-25T03:27:26;97162.88;;;13.92;34.19
44079;BME280;29744;49.078;12.878;2024-01-25T03:32:26;97163.97;;;13.91;33.83
44079;BME280;29744;49.078;12.878;2024-01-25T03:37:26;97152.41;;;13.91;34.09
44079;BME280;29744;49.078;12.878;2024-01-25T03:42:27;97157.78;;;13.91;33.74
44079;BME280;29744;49.078;12.878;2024-01-25T03:47:27;97154.28;;;13.90;33.97
44079;BME280;29744;49.078;12.878;2024-01-25T03:52:27;97151.09;;;13.88;34.24
44079;BME280;29744;49.078;12.878;2024-01-25T03:57:30;97138.72;;;13.87;34.21
44079;BME280;29744;49.078;12.878;2024-01-25T04:02:30;97134.44;;;13.86;34.03
44079;BME280;29744;49.078;12.878;2024-01-25T04:07:31;97138.72;;;13.87;33.89
44079;BME280;29744;49.078;12.878;2024-01-25T04:12:31;97146.31;;;13.85;33.95
44079;BME280;29744;49.078;12.878;2024-01-25T04:17:33;97157.09;;;13.85;33.66
44079;BME280;29744;49.078;12.878;2024-01-25T04:22:33;97150.91;;;13.84;33.99
44079;BME280;29744;49.078;12.878;2024-01-25T04:27:33;97160.09;;;13.83;34.12
44079;BME280;29744;49.078;12.878;2024-01-25T04:32:34;97155.00;;;13.82;34.39
44079;BME280;29744;49.078;12.878;2024-01-25T04:37:34;97135.03;;;13.83;33.96
44079;BME280;29744;49.078;12.878;2024-01-25T04:42:35;97157.41;;;13.83;34.20
44079;BME280;29744;49.078;12.878;2024-01-25T04:47:37;97162.50;;;13.85;34.32
44079;BME280;29744;49.078;12.878;2024-01-25T04:52:37;97179.16;;;13.87;33.76
44079;BME280;29744;49.078;12.878;2024-01-25T04:57:38;97185.56;;;13.91;34.33
44079;BME280;29744;49.078;12.878;2024-01-25T05:02:38;97185.44;;;13.96;34.14
44079;BME280;29744;49.078;12.878;2024-01-25T05:07:39;97183.63;;;14.05;34.01
44079;BME280;29744;49.078;12.878;2024-01-25T05:12:39;97202.91;;;14.12;34.17
44079;BME280;29744;49.078;12.878;2024-01-25T05:17:40;97207.59;;;14.21;33.98
44079;BME280;29744;49.078;12.878;2024-01-25T05:22:40;97193.41;;;14.29;34.23
44079;BME280;29744;49.078;12.878;2024-01-25T05:27:42;97214.78;;;14.39;33.78
44079;BME280;29744;49.078;12.878;2024-01-25T05:32:45;97214.06;;;14.47;33.89
44079;BME280;29744;49.078;12.878;2024-01-25T05:37:46;97221.72;;;14.54;33.72
44079;BME280;29744;49.078;12.878;2024-01-25T05:42:46;97219.41;;;14.61;33.56
44079;BME280;29744;49.078;12.878;2024-01-25T05:47:47;97221.19;;;14.65;33.65
44079;BME280;29744;49.078;12.878;2024-01-25T05:52:47;97224.09;;;14.69;33.83
44079;BME280;29744;49.078;12.878;2024-01-25T05:57:48;97236.19;;;14.71;33.67
44079;BME280;29744;49.078;12.878;2024-01-25T06:02:48;97217.47;;;14.75;33.60
44079;BME280;29744;49.078;12.878;2024-01-25T06:07:49;97209.06;;;14.76;33.85
44079;BME280;29744;49.078;12.878;2024-01-25T06:12:50;97216.06;;;14.77;33.85
44079;BME280;29744;49.078;12.878;2024-01-25T06:17:50;97219.56;;;14.78;33.83
44079;BME280;29744;49.078;12.878;2024-01-25T06:22:51;97231.16;;;14.78;33.19
44079;BME280;29744;49.078;12.878;2024-01-25T06:27:51;97247.34;;;14.78;33.58
44079;BME280;29744;49.078;12.878;2024-01-25T06:32:51;97249.25;;;14.78;33.19
44079;BME280;29744;49.078;12.878;2024-01-25T06:37:52;97240.34;;;14.77;33.65
44079;BME280;29744;49.078;12.878;2024-01-25T06:42:52;97272.75;;;14.77;33.46
44079;BME280;29744;49.078;12.878;2024-01-25T06:47:52;97294.66;;;14.76;33.67
44079;BME280;29744;49.078;12.878;2024-01-25T06:52:52;97320.88;;;14.75;33.45
44079;BME280;29744;49.078;12.878;2024-01-25T06:57:54;97330.88;;;14.75;33.19
44079;BME280;29744;49.078;12.878;2024-01-25T07:02:54;97344.66;;;14.73;33.19
44079;BME280;29744;49.078;12.878;2024-01-25T07:07:54;97344.19;;;14.71;33.60
44079;BME280;29744;49.078;12.878;2024-01-25T07:12:55;97342.56;;;14.70;33.52
44079;BME280;29744;49.078;12.878;2024-01-25T07:17:55;97332.06;;;14.69;33.55
44079;BME280;29744;49.078;12.878;2024-01-25T07:22:56;97332.38;;;14.67;33.00
44079;BME280;29744;49.078;12.878;2024-01-25T07:27:57;97345.09;;;14.67;33.16
44079;BME280;29744;49.078;12.878;2024-01-25T07:32:57;97361.59;;;14.65;33.27
44079;BME280;29744;49.078;12.878;2024-01-25T07:37:57;97361.88;;;14.64;33.29
44079;BME280;29744;49.078;12.878;2024-01-25T07:42:58;97368.69;;;14.61;33.17
44079;BME280;29744;49.078;12.878;2024-01-25T07:47:58;97367.09;;;14.60;33.15
44079;BME280;29744;49.078;12.878;2024-01-25T07:52:59;97361.19;;;14.58;33.38
44079;BME280;29744;49.078;12.878;2024-01-25T07:58:01;97353.09;;;14.58;33.38
44079;BME280;29744;49.078;12.878;2024-01-25T08:03:01;97358.28;;;14.55;33.47
44079;BME280;29744;49.078;12.878;2024-01-25T08:08:01;97364.50;;;14.55;33.40
44079;BME280;29744;49.078;12.878;2024-01-25T08:13:02;97372.09;;;14.53;33.48
44079;BME280;29744;49.078;12.878;2024-01-25T08:18:02;97367.78;;;14.52;33.46
44079;BME280;29744;49.078;12.878;2024-01-25T08:23:03;97386.97;;;14.50;33.49
44079;BME280;29744;49.078;12.878;2024-01-25T08:28:03;97374.59;;;14.49;33.55
44079;BME280;29744;49.078;12.878;2024-01-25T08:33:04;97385.69;;;14.48;33.43
44079;BME280;29744;49.078;12.878;2024-01-25T08:38:04;97395.97;;;14.46;33.45
44079;BME280;29744;49.078;12.878;2024-01-25T08:43:04;97400.88;;;14.44;33.76
44079;BME280;29744;49.078;12.878;2024-01-25T08:48:05;97398.19;;;14.44;33.37
44079;BME280;29744;49.078;12.878;2024-01-25T08:53:06;97389.88;;;14.40;33.28
44079;BME280;29744;49.078;12.878;2024-01-25T08:58:07;97384.78;;;14.39;33.56
44079;BME280;29744;49.078;12.878;2024-01-25T09:03:07;97385.09;;;14.37;33.34
44079;BME280;29744;49.078;12.878;2024-01-25T09:08:08;97389.97;;;14.35;33.33
44079;BME280;29744;49.078;12.878;2024-01-25T09:13:08;97404.56;;;14.34;33.91
44079;BME280;29744;49.078;12.878;2024-01-25T09:18:09;97425.66;;;14.32;33.55
44079;BME280;29744;49.078;12.878;2024-01-25T09:23:09;97433.75;;;14.32;33.75
44079;BME280;29744;49.078;12.878;2024-01-25T09:28:10;97429.75;;;14.30;33.43
44079;BME280;29744;49.078;12.878;2024-01-25T09:33:12;97436.25;;;14.29;33.99
44079;BME280;29744;49.078;12.878;2024-01-25T09:38:12;97424.94;;;14.27;33.51
44079;BME280;29744;49.078;12.878;2024-01-25T09:43:13;97441.44;;;14.25;33.50
44079;BME280;29744;49.078;12.878;2024-01-25T09:48:13;97439.03;;;14.24;33.54
44079;BME280;29744;49.078;12.878;2024-01-25T09:53:23;97442.03;;;14.22;33.82
44079;BME280;29744;49.078;12.878;2024-01-25T09:58:25;97443.09;;;14.21;33.77
44079;BME280;29744;49.078;12.878;2024-01-25T10:03:30;97435.28;;;14.19;33.73
44079;BME280;29744;49.078;12.878;2024-01-25T10:08:31;97441.00;;;14.18;33.75
44079;BME280;29744;49.078;12.878;2024-01-25T10:13:31;97446.69;;;14.16;33.63
44079;BME280;29744;49.078;12.878;2024-01-25T10:18:32;97445.88;;;14.16;33.92
44079;BME280;29744;49.078;12.878;2024-01-25T10:23:32;97448.56;;;14.16;34.17
44079;BME280;29744;49.078;12.878;2024-01-25T10:28:32;97447.28;;;14.13;33.92
44079;BME280;29744;49.078;12.878;2024-01-25T10:33:33;97461.56;;;14.14;33.91
44079;BME280;29744;49.078;12.878;2024-01-25T10:38:35;97459.16;;;14.12;33.61
44079;BME280;29744;49.078;12.878;2024-01-25T10:43:36;97465.66;;;14.11;34.15
44079;BME280;29744;49.078;12.878;2024-01-25T10:48:37;97474.03;;;14.10;33.85
44079;BME280;29744;49.078;12.878;2024-01-25T10:53:38;97481.34;;;14.09;33.87
44079;BME280;29744;49.078;12.878;2024-01-25T10:58:40;97478.63;;;14.09;33.94
44079;BME280;29744;49.078;12.878;2024-01-25T11:03:41;97474.34;;;14.08;33.86
44079;BME280;29744;49.078;12.878;2024-01-25T11:08:41;97471.94;;;14.07;34.13
44079;BME280;29744;49.078;12.878;2024-01-25T11:13:43;97473.81;;;14.06;33.70
44079;BME280;29744;49.078;12.878;2024-01-25T11:18:54;97470.63;;;14.04;33.86
44079;BME280;29744;49.078;12.878;2024-01-25T11:23:59;97467.13;;;14.04;33.70
44079;BME280;29744;49.078;12.878;2024-01-25T11:29:01;97471.72;;;14.03;34.14
44079;BME280;29744;49.078;12.878;2024-01-25T11:34:02;97457.72;;;14.01;34.23
44079;BME280;29744;49.078;12.878;2024-01-25T11:39:02;97454.22;;;14.01;33.72
44079;BME280;29744;49.078;12.878;2024-01-25T11:44:04;97455.03;;;14.01;33.97
44079;BME280;29744;49.078;12.878;2024-01-25T11:49:04;97456.13;;;14.00;34.27
44079;BME280;29744;49.078;12.878;2024-01-25T11:54:04;97448.34;;;13.99;34.25
44079;BME280;29744;49.078;12.878;2024-01-25T11:59:07;97455.63;;;13.98;33.92
44079;BME280;29744;49.078;12.878;2024-01-25T12:04:08;97449.44;;;13.98;34.45
44079;BME280;29744;49.078;12.878;2024-01-25T12:09:10;97447.03;;;13.96;34.06
44079;BME280;29744;49.078;12.878;2024-01-25T12:14:11;97446.22;;;13.96;34.05
44079;BME280;29744;49.078;12.878;2024-01-25T12:19:11;97451.91;;;13.94;34.08
44079;BME280;29744;49.078;12.878;2024-01-25T12:24:12;97444.63;;;13.95;33.96
44079;BME280;29744;49.078;12.878;2024-01-25T12:29:12;97448.41;;;13.94;34.19
44079;BME280;29744;49.078;12.878;2024-01-25T12:34:13;97461.09;;;13.93;34.25
44079;BME280;29744;49.078;12.878;2024-01-25T12:39:17;97456.81;;;13.92;34.10
44079;BME280;29744;49.078;12.878;2024-01-25T12:44:18;97447.91;;;13.92;34.24
44079;BME280;29744;49.078;12.878;2024-01-25T12:49:19;97448.22;;;13.90;33.99
44079;BME280;29744;49.078;12.878;2024-01-25T12:54:22;97439.31;;;13.90;33.89
44079;BME280;29744;49.078;12.878;2024-01-25T12:59:22;97429.63;;;13.89;34.21
44079;BME280;29744;49.078;12.878;2024-01-25T13:04:23;97426.13;;;13.88;34.16
44079;BME280;29744;49.078;12.878;2024-01-25T13:09:23;97434.22;;;13.88;34.41
44079;BME280;29744;49.078;12.878;2024-01-25T13:14:24;97440.41;;;13.89;34.44
44079;BME280;29744;49.078;12.878;2024-01-25T13:19:24;97427.22;;;13.87;34.43
44079;BME280;29744;49.078;12.878;2024-01-25T13:24:25;97412.94;;;13.86;33.87
44079;BME280;29744;49.078;12.878;2024-01-25T13:29:25;97422.13;;;13.85;33.99
44079;BME280;29744;49.078;12.878;2024-01-25T13:34:25;97432.13;;;13.85;34.34
44079;BME280;29744;49.078;12.878;2024-01-25T13:39:26;97444.00;;;13.84;34.26
44079;BME280;29744;49.078;12.878;2024-01-25T13:44:26;97451.28;;;13.83;33.98
44079;BME280;29744;49.078;12.878;2024-01-25T13:49:26;97436.19;;;13.82;34.30
44079;BME280;29744;49.078;12.878;2024-01-25T13:54:27;97439.19;;;13.81;34.12
44079;BME280;29744;49.078;12.878;2024-01-25T13:59:27;97429.47;;;13.80;34.52
44079;BME280;29744;49.078;12.878;2024-01-25T14:04:27;97438.38;;;13.80;34.20
44079;BME280;29744;49.078;12.878;2024-01-25T14:09:28;97430.56;;;13.79;34.30
44079;BME280;29744;49.078;12.878;2024-01-25T14:14:29;97438.66;;;13.79;34.55
44079;BME280;29744;49.078;12.878;2024-01-25T14:19:30;97439.75;;;13.78;34.12
44079;BME280;29744;49.078;12.878;2024-01-25T14:24:30;97436.25;;;13.77;34.24
44079;BME280;29744;49.078;12.878;2024-01-25T14:29:30;97423.56;;;13.78;34.26
44079;BME280;29744;49.078;12.878;2024-01-25T14:34:33;97414.69;;;13.77;34.27
44079;BME280;29744;49.078;12.878;2024-01-25T14:39:36;97423.06;;;13.76;34.56
44079;BME280;29744;49.078;12.878;2024-01-25T14:44:38;97414.19;;;13.75;34.30
44079;BME280;29744;49.078;12.878;2024-01-25T14:49:38;97410.69;;;13.75;34.33
44079;BME280;29744;49.078;12.878;2024-01-25T14:54:40;97407.97;;;13.75;34.54
44079;BME280;29744;49.078;12.878;2024-01-25T14:59:40;97392.91;;;13.74;34.31
44079;BME280;29744;49.078;12.878;2024-01-25T15:04:42;97383.22;;;13.73;34.07
44079;BME280;29744;49.078;12.878;2024-01-25T15:09:42;97379.72;;;13.72;34.30
44079;BME280;29744;49.078;12.878;2024-01-25T15:14:42;97387.00;;;13.72;34.58
44079;BME280;29744;49.078;12.878;2024-01-25T15:19:43;97393.50;;;13.71;34.27
44079;BME280;29744;49.078;12.878;2024-01-25T15:24:44;97398.88;;;13.71;34.43
44079;BME280;29744;49.078;12.878;2024-01-25T15:29:45;97405.38;;;13.70;34.09
44079;BME280;29744;49.078;12.878;2024-01-25T15:34:46;97399.19;;;13.69;34.43
44079;BME280;29744;49.078;12.878;2024-01-25T15:39:46;97398.38;;;13.69;34.48
44079;BME280;29744;49.078;12.878;2024-01-25T15:44:47;97401.38;;;13.67;34.38
44079;BME280;29744;49.078;12.878;2024-01-25T15:49:47;97389.78;;;13.67;34.34
44079;BME280;29744;49.078;12.878;2024-01-25T15:54:48;97382.78;;;13.66;34.35
44079;BME280;29744;49.078;12.878;2024-01-25T15:59:49;97380.41;;;13.64;34.26
44079;BME280;29744;49.078;12.878;2024-01-25T16:04:49;97384.69;;;13.65;34.17
44079;BME280;29744;49.078;12.878;2024-01-25T16:09:50;97385.78;;;13.64;34.49
44079;BME280;29744;49.078;12.878;2024-01-25T16:14:50;97386.28;;;13.66;34.13
44079;BME280;29744;49.078;12.878;2024-01-25T16:19:51;97401.06;;;13.69;34.40
44079;BME280;29744;49.078;12.878;2024-01-25T16:24:51;97402.38;;;13.71;34.68
44079;BME280;29744;49.078;12.878;2024-01-25T16:29:52;97409.59;;;13.76;34.44
44079;BME280;29744;49.078;12.878;2024-01-25T16:34:52;97401.44;;;13.81;34.58
44079;BME280;29744;49.078;12.878;2024-01-25T16:39:52;97408.34;;;13.87;34.65
44079;BME280;29744;49.078;12.878;2024-01-25T16:44:53;97423.84;;;13.95;34.40
44079;BME280;29744;49.078;12.878;2024-01-25T16:49:53;97422.38;;;14.03;34.64
44079;BME280;29744;49.078;12.878;2024-01-25T16:54:53;97424.91;;;14.13;34.22
44079;BME280;29744;49.078;12.878;2024-01-25T16:59:54;97423.94;;;14.23;34.38
44079;BME280;29744;49.078;12.878;2024-01-25T17:04:54;97423.25;;;14.31;34.36
44079;BME280;29744;49.078;12.878;2024-01-25T17:09:54;97416.06;;;14.40;34.52
44079;BME280;29744;49.078;12.878;2024-01-25T17:14:55;97423.47;;;14.48;33.83
44079;BME280;29744;49.078;12.878;2024-01-25T17:19:55;97417.38;;;14.56;34.21
44079;BME280;29744;49.078;12.878;2024-01-25T17:29:56;97411.47;;;14.68;34.09
44079;BME280;29744;49.078;12.878;2024-01-25T17:34:56;97414.06;;;14.73;33.85
44079;BME280;29744;49.078;12.878;2024-01-25T17:39:57;97416.47;;;14.74;33.92
44079;BME280;29744;49.078;12.878;2024-01-25T17:44:57;97419.38;;;14.78;33.69
44079;BME280;29744;49.078;12.878;2024-01-25T17:49:57;97437.16;;;14.79;34.08
44079;BME280;29744;49.078;12.878;2024-01-25T17:54:58;97432.56;;;14.79;33.44
44079;BME280;29744;49.078;12.878;2024-01-25T17:59:58;97425.28;;;14.80;33.97
44079;BME280;29744;49.078;12.878;2024-01-25T18:04:58;97433.06;;;14.81;33.89
44079;BME280;29744;49.078;12.878;2024-01-25T18:09:59;97427.97;;;14.80;33.37
44079;BME280;29744;49.078;12.878;2024-01-25T18:14:59;97435.28;;;14.79;33.41
44079;BME280;29744;49.078;12.878;2024-01-25T18:19:59;97429.06;;;14.79;33.81
44079;BME280;29744;49.078;12.878;2024-01-25T18:25:00;97428.28;;;14.78;33.49
44079;BME280;29744;49.078;12.878;2024-01-25T18:30:00;97422.38;;;14.76;33.35
44079;BME280;29744;49.078;12.878;2024-01-25T18:35:01;97418.06;;;14.75;33.87
44079;BME280;29744;49.078;12.878;2024-01-25T18:40:01;97414.88;;;14.73;33.61
44079;BME280;29744;49.078;12.878;2024-01-25T18:45:04;97418.38;;;14.74;33.81
44079;BME280;29744;49.078;12.878;2024-01-25T18:50:05;97420.56;;;14.72;33.24
44079;BME280;29744;49.078;12.878;2024-01-25T18:55:06;97406.28;;;14.71;33.31
44079;BME280;29744;49.078;12.878;2024-01-25T19:00:07;97404.69;;;14.70;33.27
44079;BME280;29744;49.078;12.878;2024-01-25T19:05:09;97407.69;;;14.69;33.34
44079;BME280;29744;49.078;12.878;2024-01-25T19:10:10;97405.28;;;14.67;33.58
44079;BME280;29744;49.078;12.878;2024-01-25T19:15:11;97397.78;;;14.64;33.31
44079;BME280;29744;49.078;12.878;2024-01-25T19:20:11;97395.06;;;14.64;33.62
44079;BME280;29744;49.078;12.878;2024-01-25T19:25:12;97404.28;;;14.63;33.51
44079;BME280;29744;49.078;12.878;2024-01-25T19:35:15;97413.47;;;14.62;33.43
44079;BME280;29744;49.078;12.878;2024-01-25T19:40:16;97420.78;;;14.62;33.72
44079;BME280;29744;49.078;12.878;2024-01-25T19:45:16;97425.88;;;14.63;33.78
44079;BME280;29744;49.078;12.878;2024-01-25T19:50:16;97417.78;;;14.63;33.38
44079;BME280;29744;49.078;12.878;2024-01-25T19:55:17;97412.38;;;14.63;33.68
44079;BME280;29744;49.078;12.878;2024-01-25T20:00:18;97405.88;;;14.64;33.61
44079;BME280;29744;49.078;12.878;2024-01-25T20:05:19;97408.56;;;14.64;33.48
44079;BME280;29744;49.078;12.878;2024-01-25T20:10:19;97422.06;;;14.64;33.45
44079;BME280;29744;49.078;12.878;2024-01-25T20:15:20;97415.06;;;14.63;33.55
44079;BME280;29744;49.078;12.878;2024-01-25T20:20:20;97416.69;;;14.64;33.76
44079;BME280;29744;49.078;12.878;2024-01-25T20:25:21;97415.06;;;14.63;33.31
44079;BME280;29744;49.078;12.878;2024-01-25T20:30:21;97420.47;;;14.63;33.75
44079;BME280;29744;49.078;12.878;2024-01-25T20:40:22;97416.47;;;14.61;33.44
44079;BME280;29744;49.078;12.878;2024-01-25T20:45:23;97425.69;;;14.60;33.49
44079;BME280;29744;49.078;12.878;2024-01-25T20:50:23;97424.88;;;14.59;33.68
44079;BME280;29744;49.078;12.878;2024-01-25T20:55:24;97424.06;;;14.59;33.57
44079;BME280;29744;49.078;12.878;2024-01-25T21:00:24;97413.56;;;14.57;33.08
44079;BME280;29744;49.078;12.878;2024-01-25T21:05:25;97410.06;;;14.57;33.75
44079;BME280;29744;49.078;12.878;2024-01-25T21:10:25;97413.88;;;14.56;33.32
44079;BME280;29744;49.078;12.878;2024-01-25T21:15:26;97409.56;;;14.55;33.83
44079;BME280;29744;49.078;12.878;2024-01-25T21:20:27;97413.38;;;14.54;33.81
44079;BME280;29744;49.078;12.878;2024-01-25T21:25:27;97414.47;;;14.53;33.43
44079;BME280;29744;49.078;12.878;2024-01-25T21:30:28;97407.47;;;14.52;33.81
44079;BME280;29744;49.078;12.878;2024-01-25T21:35:28;97405.88;;;14.50;33.82
44079;BME280;29744;49.078;12.878;2024-01-25T21:40:29;97409.97;;;14.48;33.46
44079;BME280;29744;49.078;12.878;2024-01-25T21:45:29;97404.06;;;14.46;33.95
44079;BME280;29744;49.078;12.878;2024-01-25T21:50:29;97411.69;;;14.44;33.26
44079;BME280;29744;49.078;12.878;2024-01-25T21:55:31;97410.88;;;14.43;33.88
44079;BME280;29744;49.078;12.878;2024-01-25T22:00:32;97410.38;;;14.41;33.75
44079;BME280;29744;49.078;12.878;2024-01-25T22:05:32;97419.88;;;14.39;33.59
44079;BME280;29744;49.078;12.878;2024-01-25T22:10:33;97415.56;;;14.38;33.58
44079;BME280;29744;49.078;12.878;2024-01-25T22:15:33;97407.78;;;14.36;33.71
44079;BME280;29744;49.078;12.878;2024-01-25T22:20:33;97400.78;;;14.35;33.95
44079;BME280;29744;49.078;12.878;2024-01-25T22:25:34;97401.06;;;14.34;33.76
44079;BME280;29744;49.078;12.878;2024-01-25T22:30:34;97397.88;;;14.32;33.83
44079;BME280;29744;49.078;12.878;2024-01-25T22:35:34;97396.56;;;14.29;33.53
44079;BME280;29744;49.078;12.878;2024-01-25T22:40:35;97393.06;;;14.29;33.36
44079;BME280;29744;49.078;12.878;2024-01-25T22:45:35;97384.47;;;14.27;33.47
44079;BME280;29744;49.078;12.878;2024-01-25T22:50:35;97379.38;;;14.25;33.82
44079;BME280;29744;49.078;12.878;2024-01-25T22:55:36;97371.88;;;14.22;33.93
44079;BME280;29744;49.078;12.878;2024-01-25T23:00:36;97374.84;;;14.21;33.49
44079;BME280;29744;49.078;12.878;2024-01-25T23:05:39;97384.03;;;14.19;33.68
44079;BME280;29744;49.078;12.878;2024-01-25T23:10:39;97386.22;;;14.17;33.56
44079;BME280;29744;49.078;12.878;2024-01-25T23:15:40;97382.25;;;14.15;33.90
44079;BME280;29744;49.078;12.878;2024-01-25T23:20:40;97384.44;;;14.13;33.97
44079;BME280;29744;49.078;12.878;2024-01-25T23:25:40;97384.22;;;14.09;33.86
44079;BME280;29744;49.078;12.878;2024-01-25T23:30:41;97379.94;;;14.08;33.53
44079;BME280;29744;49.078;12.878;2024-01-25T23:35:41;97379.94;;;14.08;33.81
44079;BME280;29744;49.078;12.878;2024-01-25T23:40:42;97377.81;;;14.05;33.75
44079;BME280;29744;49.078;12.878;2024-01-25T23:45:42;97370.84;;;14.04;34.13
44079;BME280;29744;49.078;12.878;2024-01-25T23:50:42;97376.53;;;14.03;33.75
44079;BME280;29744;49.078;12.878;2024-01-25T23:55:43;97379.53;;;14.01;34.17
